sensor_id;sensor_type;location;lat;lon;timestamp;P1;durP1;ratioP1;P2;durP2;ratioP2
44214;SDS011;29884;47.450;19.124;2022-08-02T00:00:45;3.00;;;0.60;;
44214;SDS011;29884;47.450;19.124;2022-08-02T00:03:11;0.50;;;0.50;;
44214;SDS011;29884;47.450;19.124;2022-08-02T00:05:37;1.08;;;0.60;;
44214;SDS011;29884;47.450;19.124;2022-08-02T00:08:03;2.17;;;0.70;;
44214;SDS011;29884;47.450;19.124;2022-08-02T00:10:29;2.42;;;0.68;;
44214;SDS011;29884;47.450;19.124;2022-08-02T00:12:55;0.70;;;0.50;;
44214;SDS011;29884;47.450;19.124;2022-08-02T00:15:20;0.70;;;0.55;;
44214;SDS011;29884;47.450;19.124;2022-08-02T00:17:46;0.70;;;0.60;;
44214;SDS011;29884;47.450;19.124;2022-08-02T00:20:12;2.10;;;0.68;;
44214;SDS011;29884;47.450;19.124;2022-08-02T00:22:38;1.50;;;0.63;;
44214;SDS011;29884;47.450;19.124;2022-08-02T00:25:04;0.63;;;0.60;;
44214;SDS011;29884;47.450;19.124;2022-08-02T00:27:30;0.75;;;0.60;;
44214;SDS011;29884;47.450;19.124;2022-08-02T00:29:56;1.70;;;0.65;;
44214;SDS011;29884;47.450;19.124;2022-08-02T00:32:22;0.80;;;0.60;;
44214;SDS011;29884;47.450;19.124;2022-08-02T00:34:48;1.27;;;0.60;;
44214;SDS011;29884;47.450;19.124;2022-08-02T00:37:14;2.17;;;0.57;;
44214;SDS011;29884;47.450;19.124;2022-08-02T00:39:40;1.02;;;0.60;;
44214;SDS011;29884;47.450;19.124;2022-08-02T00:42:09;1.27;;;0.55;;
44214;SDS011;29884;47.450;19.124;2022-08-02T00:44:38;0.80;;;0.70;;
44214;SDS011;29884;47.450;19.124;2022-08-02T00:47:04;1.40;;;0.50;;
44214;SDS011;29884;47.450;19.124;2022-08-02T00:49:30;3.03;;;0.70;;
44214;SDS011;29884;47.450;19.124;2022-08-02T00:51:56;1.30;;;0.60;;
44214;SDS011;29884;47.450;19.124;2022-08-02T00:54:22;1.67;;;0.70;;
44214;SDS011;29884;47.450;19.124;2022-08-02T00:56:47;0.80;;;0.55;;
44214;SDS011;29884;47.450;19.124;2022-08-02T00:59:13;1.55;;;0.60;;
44214;SDS011;29884;47.450;19.124;2022-08-02T01:01:39;2.00;;;0.60;;
44214;SDS011;29884;47.450;19.124;2022-08-02T01:04:07;0.93;;;0.52;;
44214;SDS011;29884;47.450;19.124;2022-08-02T01:06:34;2.33;;;0.60;;
44214;SDS011;29884;47.450;19.124;2022-08-02T01:09:00;0.90;;;0.70;;
44214;SDS011;29884;47.450;19.124;2022-08-02T01:11:28;0.70;;;0.50;;
44214;SDS011;29884;47.450;19.124;2022-08-02T01:13:55;0.77;;;0.63;;
44214;SDS011;29884;47.450;19.124;2022-08-02T01:16:47;1.23;;;0.60;;
44214;SDS011;29884;47.450;19.124;2022-08-02T01:30:08;3.47;;;0.70;;
44214;SDS011;29884;47.450;19.124;2022-08-02T01:32:40;1.88;;;0.60;;
44214;SDS011;29884;47.450;19.124;2022-08-02T01:35:12;2.08;;;0.70;;
44214;SDS011;29884;47.450;19.124;2022-08-02T01:40:16;2.22;;;0.70;;
44214;SDS011;29884;47.450;19.124;2022-08-02T01:42:55;1.02;;;0.70;;
44214;SDS011;29884;47.450;19.124;2022-08-02T01:45:27;2.13;;;0.70;;
44214;SDS011;29884;47.450;19.124;2022-08-02T01:47:57;1.35;;;0.65;;
44214;SDS011;29884;47.450;19.124;2022-08-02T01:50:25;1.02;;;0.60;;
44214;SDS011;29884;47.450;19.124;2022-08-02T01:52:55;1.33;;;0.77;;
44214;SDS011;29884;47.450;19.124;2022-08-02T01:55:24;1.10;;;0.68;;
44214;SDS011;29884;47.450;19.124;2022-08-02T01:57:56;4.00;;;0.80;;
44214;SDS011;29884;47.450;19.124;2022-08-02T02:00:24;1.65;;;0.55;;
44214;SDS011;29884;47.450;19.124;2022-08-02T02:02:53;2.92;;;0.73;;
44214;SDS011;29884;47.450;19.124;2022-08-02T02:05:21;2.20;;;0.80;;
44214;SDS011;29884;47.450;19.124;2022-08-02T02:07:51;1.20;;;0.70;;
44214;SDS011;29884;47.450;19.124;2022-08-02T02:10:23;1.67;;;0.80;;
44214;SDS011;29884;47.450;19.124;2022-08-02T02:12:51;1.40;;;0.70;;
44214;SDS011;29884;47.450;19.124;2022-08-02T02:15:18;1.88;;;0.90;;
44214;SDS011;29884;47.450;19.124;2022-08-02T02:17:46;0.88;;;0.70;;
44214;SDS011;29884;47.450;19.124;2022-08-02T02:20:16;2.88;;;0.80;;
44214;SDS011;29884;47.450;19.124;2022-08-02T02:22:43;1.20;;;0.60;;
44214;SDS011;29884;47.450;19.124;2022-08-02T02:25:09;1.25;;;0.70;;
44214;SDS011;29884;47.450;19.124;2022-08-02T02:27:36;2.22;;;0.70;;
44214;SDS011;29884;47.450;19.124;2022-08-02T02:30:07;1.08;;;0.75;;
44214;SDS011;29884;47.450;19.124;2022-08-02T02:32:33;1.42;;;0.85;;
44214;SDS011;29884;47.450;19.124;2022-08-02T02:35:00;8.02;;;0.80;;
44214;SDS011;29884;47.450;19.124;2022-08-02T02:37:28;2.15;;;0.95;;
44214;SDS011;29884;47.450;19.124;2022-08-02T02:39:56;2.97;;;0.88;;
44214;SDS011;29884;47.450;19.124;2022-08-02T02:42:25;6.00;;;1.13;;
44214;SDS011;29884;47.450;19.124;2022-08-02T02:44:54;2.83;;;0.90;;
44214;SDS011;29884;47.450;19.124;2022-08-02T02:47:21;2.17;;;0.90;;
44214;SDS011;29884;47.450;19.124;2022-08-02T02:49:47;6.28;;;1.00;;
44214;SDS011;29884;47.450;19.124;2022-08-02T02:52:15;1.20;;;0.80;;
44214;SDS011;29884;47.450;19.124;2022-08-02T02:54:42;2.45;;;0.90;;
44214;SDS011;29884;47.450;19.124;2022-08-02T02:57:11;3.67;;;0.88;;
44214;SDS011;29884;47.450;19.124;2022-08-02T02:59:38;1.73;;;0.70;;
44214;SDS011;29884;47.450;19.124;2022-08-02T03:02:04;1.58;;;0.90;;
44214;SDS011;29884;47.450;19.124;2022-08-02T03:04:30;1.33;;;0.80;;
44214;SDS011;29884;47.450;19.124;2022-08-02T03:06:57;1.20;;;1.00;;
44214;SDS011;29884;47.450;19.124;2022-08-02T03:09:24;1.30;;;0.90;;
44214;SDS011;29884;47.450;19.124;2022-08-02T03:11:51;4.10;;;0.90;;
44214;SDS011;29884;47.450;19.124;2022-08-02T03:14:18;1.20;;;0.80;;
44214;SDS011;29884;47.450;19.124;2022-08-02T03:16:48;0.80;;;0.60;;
44214;SDS011;29884;47.450;19.124;2022-08-02T03:19:16;1.00;;;0.77;;
44214;SDS011;29884;47.450;19.124;2022-08-02T03:21:43;1.42;;;0.82;;
44214;SDS011;29884;47.450;19.124;2022-08-02T03:24:10;1.52;;;0.90;;
44214;SDS011;29884;47.450;19.124;2022-08-02T03:26:36;1.15;;;0.82;;
44214;SDS011;29884;47.450;19.124;2022-08-02T03:29:02;1.45;;;0.80;;
44214;SDS011;29884;47.450;19.124;2022-08-02T03:31:29;1.75;;;0.90;;
44214;SDS011;29884;47.450;19.124;2022-08-02T03:33:55;1.55;;;0.98;;
44214;SDS011;29884;47.450;19.124;2022-08-02T03:36:23;1.20;;;0.80;;
44214;SDS011;29884;47.450;19.124;2022-08-02T03:38:51;2.65;;;1.05;;
44214;SDS011;29884;47.450;19.124;2022-08-02T03:41:17;3.10;;;0.88;;
44214;SDS011;29884;47.450;19.124;2022-08-02T03:43:44;1.15;;;0.80;;
44214;SDS011;29884;47.450;19.124;2022-08-02T03:46:13;1.85;;;0.80;;
44214;SDS011;29884;47.450;19.124;2022-08-02T03:48:42;4.18;;;0.85;;
44214;SDS011;29884;47.450;19.124;2022-08-02T03:51:09;1.55;;;1.00;;
44214;SDS011;29884;47.450;19.124;2022-08-02T03:53:35;1.67;;;0.90;;
44214;SDS011;29884;47.450;19.124;2022-08-02T03:56:02;2.20;;;1.00;;
44214;SDS011;29884;47.450;19.124;2022-08-02T03:58:30;2.45;;;0.93;;
44214;SDS011;29884;47.450;19.124;2022-08-02T04:00:56;2.45;;;1.00;;
44214;SDS011;29884;47.450;19.124;2022-08-02T04:03:23;1.40;;;0.95;;
44214;SDS011;29884;47.450;19.124;2022-08-02T04:05:49;1.10;;;0.80;;
44214;SDS011;29884;47.450;19.124;2022-08-02T04:08:15;2.90;;;1.00;;
44214;SDS011;29884;47.450;19.124;2022-08-02T04:10:41;1.23;;;0.77;;
44214;SDS011;29884;47.450;19.124;2022-08-02T04:13:26;1.50;;;0.90;;
44214;SDS011;29884;47.450;19.124;2022-08-02T04:15:56;2.88;;;1.00;;
44214;SDS011;29884;47.450;19.124;2022-08-02T04:18:29;1.33;;;0.82;;
44214;SDS011;29884;47.450;19.124;2022-08-02T04:21:01;1.10;;;0.82;;
44214;SDS011;29884;47.450;19.124;2022-08-02T04:23:30;1.42;;;0.80;;
44214;SDS011;29884;47.450;19.124;2022-08-02T04:25:59;2.47;;;1.00;;
44214;SDS011;29884;47.450;19.124;2022-08-02T04:28:25;1.15;;;0.80;;
44214;SDS011;29884;47.450;19.124;2022-08-02T04:30:52;1.55;;;0.90;;
44214;SDS011;29884;47.450;19.124;2022-08-02T04:33:19;1.52;;;1.00;;
44214;SDS011;29884;47.450;19.124;2022-08-02T04:35:45;3.38;;;0.90;;
44214;SDS011;29884;47.450;19.124;2022-08-02T04:38:11;1.30;;;0.80;;
44214;SDS011;29884;47.450;19.124;2022-08-02T04:40:38;1.50;;;0.90;;
44214;SDS011;29884;47.450;19.124;2022-08-02T04:43:04;3.38;;;0.90;;
44214;SDS011;29884;47.450;19.124;2022-08-02T04:45:30;1.80;;;0.80;;
44214;SDS011;29884;47.450;19.124;2022-08-02T04:47:57;1.65;;;0.80;;
44214;SDS011;29884;47.450;19.124;2022-08-02T04:50:23;1.45;;;0.90;;
44214;SDS011;29884;47.450;19.124;2022-08-02T04:52:49;1.70;;;0.90;;
44214;SDS011;29884;47.450;19.124;2022-08-02T04:55:14;1.27;;;0.90;;
44214;SDS011;29884;47.450;19.124;2022-08-02T04:57:40;1.35;;;0.75;;
44214;SDS011;29884;47.450;19.124;2022-08-02T05:00:22;0.85;;;0.60;;
44214;SDS011;29884;47.450;19.124;2022-08-02T05:02:49;1.85;;;0.80;;
44214;SDS011;29884;47.450;19.124;2022-08-02T05:05:16;1.80;;;0.90;;
44214;SDS011;29884;47.450;19.124;2022-08-02T05:07:42;1.60;;;0.77;;
44214;SDS011;29884;47.450;19.124;2022-08-02T05:10:08;2.78;;;0.77;;
44214;SDS011;29884;47.450;19.124;2022-08-02T05:12:36;1.30;;;0.70;;
44214;SDS011;29884;47.450;19.124;2022-08-02T05:15:02;3.97;;;0.65;;
44214;SDS011;29884;47.450;19.124;2022-08-02T05:17:28;1.88;;;0.70;;
44214;SDS011;29884;47.450;19.124;2022-08-02T05:19:54;1.52;;;0.80;;
44214;SDS011;29884;47.450;19.124;2022-08-02T05:22:20;1.13;;;0.80;;
44214;SDS011;29884;47.450;19.124;2022-08-02T05:24:46;1.45;;;0.60;;
44214;SDS011;29884;47.450;19.124;2022-08-02T05:27:12;1.05;;;0.70;;
44214;SDS011;29884;47.450;19.124;2022-08-02T05:29:37;1.50;;;0.70;;
44214;SDS011;29884;47.450;19.124;2022-08-02T05:32:03;3.70;;;0.70;;
44214;SDS011;29884;47.450;19.124;2022-08-02T05:34:30;2.50;;;0.70;;
44214;SDS011;29884;47.450;19.124;2022-08-02T05:36:55;1.35;;;0.60;;
44214;SDS011;29884;47.450;19.124;2022-08-02T05:39:21;0.75;;;0.57;;
44214;SDS011;29884;47.450;19.124;2022-08-02T05:41:47;1.10;;;0.65;;
44214;SDS011;29884;47.450;19.124;2022-08-02T05:44:13;1.20;;;0.63;;
44214;SDS011;29884;47.450;19.124;2022-08-02T05:46:40;1.08;;;0.80;;
44214;SDS011;29884;47.450;19.124;2022-08-02T05:49:06;1.20;;;0.55;;
44214;SDS011;29884;47.450;19.124;2022-08-02T05:51:35;1.95;;;0.70;;
44214;SDS011;29884;47.450;19.124;2022-08-02T05:54:26;3.13;;;0.63;;
44214;SDS011;29884;47.450;19.124;2022-08-02T06:00:21;3.58;;;0.60;;
44214;SDS011;29884;47.450;19.124;2022-08-02T06:06:00;1.30;;;0.70;;
44214;SDS011;29884;47.450;19.124;2022-08-02T06:08:43;2.30;;;0.60;;
44214;SDS011;29884;47.450;19.124;2022-08-02T06:11:15;2.15;;;0.70;;
44214;SDS011;29884;47.450;19.124;2022-08-02T06:13:45;1.58;;;0.63;;
44214;SDS011;29884;47.450;19.124;2022-08-02T06:16:11;1.20;;;0.70;;
44214;SDS011;29884;47.450;19.124;2022-08-02T06:18:37;1.45;;;0.70;;
44214;SDS011;29884;47.450;19.124;2022-08-02T06:21:05;2.20;;;0.90;;
44214;SDS011;29884;47.450;19.124;2022-08-02T06:23:33;0.90;;;0.60;;
44214;SDS011;29884;47.450;19.124;2022-08-02T06:26:00;1.00;;;0.70;;
44214;SDS011;29884;47.450;19.124;2022-08-02T06:28:28;2.00;;;0.90;;
44214;SDS011;29884;47.450;19.124;2022-08-02T06:30:55;2.38;;;0.70;;
44214;SDS011;29884;47.450;19.124;2022-08-02T06:33:22;3.13;;;0.63;;
44214;SDS011;29884;47.450;19.124;2022-08-02T06:35:55;1.52;;;0.70;;
44214;SDS011;29884;47.450;19.124;2022-08-02T06:38:23;1.77;;;0.70;;
44214;SDS011;29884;47.450;19.124;2022-08-02T06:41:02;1.02;;;0.68;;
44214;SDS011;29884;47.450;19.124;2022-08-02T06:43:37;1.17;;;0.70;;
44214;SDS011;29884;47.450;19.124;2022-08-02T06:46:07;1.83;;;0.70;;
44214;SDS011;29884;47.450;19.124;2022-08-02T06:48:33;3.20;;;0.70;;
44214;SDS011;29884;47.450;19.124;2022-08-02T06:51:01;2.85;;;0.57;;
44214;SDS011;29884;47.450;19.124;2022-08-02T06:53:27;4.65;;;0.80;;
44214;SDS011;29884;47.450;19.124;2022-08-02T06:55:53;1.00;;;0.60;;
44214;SDS011;29884;47.450;19.124;2022-08-02T06:58:19;1.58;;;0.80;;
44214;SDS011;29884;47.450;19.124;2022-08-02T07:00:45;0.68;;;0.47;;
44214;SDS011;29884;47.450;19.124;2022-08-02T07:03:11;1.38;;;0.70;;
44214;SDS011;29884;47.450;19.124;2022-08-02T07:05:37;1.33;;;0.60;;
44214;SDS011;29884;47.450;19.124;2022-08-02T07:08:03;0.90;;;0.47;;
44214;SDS011;29884;47.450;19.124;2022-08-02T07:10:29;1.30;;;0.60;;
44214;SDS011;29884;47.450;19.124;2022-08-02T07:12:54;0.55;;;0.50;;
44214;SDS011;29884;47.450;19.124;2022-08-02T07:15:20;2.58;;;0.60;;
44214;SDS011;29884;47.450;19.124;2022-08-02T07:17:46;0.60;;;0.45;;
44214;SDS011;29884;47.450;19.124;2022-08-02T07:20:12;5.93;;;0.55;;
44214;SDS011;29884;47.450;19.124;2022-08-02T07:22:39;1.38;;;0.60;;
44214;SDS011;29884;47.450;19.124;2022-08-02T07:25:05;4.00;;;0.47;;
44214;SDS011;29884;47.450;19.124;2022-08-02T07:27:31;1.23;;;0.60;;
44214;SDS011;29884;47.450;19.124;2022-08-02T07:29:57;0.95;;;0.50;;
44214;SDS011;29884;47.450;19.124;2022-08-02T07:32:25;0.63;;;0.50;;
44214;SDS011;29884;47.450;19.124;2022-08-02T07:34:53;0.80;;;0.50;;
44214;SDS011;29884;47.450;19.124;2022-08-02T07:37:20;0.70;;;0.50;;
44214;SDS011;29884;47.450;19.124;2022-08-02T07:39:47;3.88;;;0.50;;
44214;SDS011;29884;47.450;19.124;2022-08-02T07:42:13;1.25;;;0.55;;
44214;SDS011;29884;47.450;19.124;2022-08-02T07:44:39;0.73;;;0.40;;
44214;SDS011;29884;47.450;19.124;2022-08-02T07:47:05;0.60;;;0.50;;
44214;SDS011;29884;47.450;19.124;2022-08-02T07:49:31;2.42;;;0.50;;
44214;SDS011;29884;47.450;19.124;2022-08-02T07:51:56;0.70;;;0.45;;
44214;SDS011;29884;47.450;19.124;2022-08-02T07:54:23;1.88;;;0.40;;
44214;SDS011;29884;47.450;19.124;2022-08-02T07:56:49;2.50;;;0.50;;
44214;SDS011;29884;47.450;19.124;2022-08-02T07:59:17;0.60;;;0.50;;
44214;SDS011;29884;47.450;19.124;2022-08-02T08:01:43;0.70;;;0.50;;
44214;SDS011;29884;47.450;19.124;2022-08-02T08:04:09;0.50;;;0.40;;
44214;SDS011;29884;47.450;19.124;2022-08-02T08:06:34;1.02;;;0.50;;
44214;SDS011;29884;47.450;19.124;2022-08-02T08:09:00;0.35;;;0.30;;
44214;SDS011;29884;47.450;19.124;2022-08-02T08:11:26;0.70;;;0.40;;
44214;SDS011;29884;47.450;19.124;2022-08-02T08:13:52;3.88;;;0.57;;
44214;SDS011;29884;47.450;19.124;2022-08-02T08:16:18;1.48;;;0.40;;
44214;SDS011;29884;47.450;19.124;2022-08-02T08:18:44;0.98;;;0.40;;
44214;SDS011;29884;47.450;19.124;2022-08-02T08:21:09;0.40;;;0.38;;
44214;SDS011;29884;47.450;19.124;2022-08-02T08:23:35;1.63;;;0.40;;
44214;SDS011;29884;47.450;19.124;2022-08-02T08:26:02;1.27;;;0.30;;
44214;SDS011;29884;47.450;19.124;2022-08-02T08:28:28;0.98;;;0.35;;
44214;SDS011;29884;47.450;19.124;2022-08-02T08:30:54;0.43;;;0.40;;
44214;SDS011;29884;47.450;19.124;2022-08-02T08:33:19;0.30;;;0.28;;
44214;SDS011;29884;47.450;19.124;2022-08-02T08:35:45;0.80;;;0.40;;
44214;SDS011;29884;47.450;19.124;2022-08-02T08:38:11;1.95;;;0.30;;
44214;SDS011;29884;47.450;19.124;2022-08-02T08:40:37;0.50;;;0.30;;
44214;SDS011;29884;47.450;19.124;2022-08-02T08:43:06;2.38;;;0.40;;
44214;SDS011;29884;47.450;19.124;2022-08-02T08:45:31;0.40;;;0.32;;
44214;SDS011;29884;47.450;19.124;2022-08-02T08:48:07;0.40;;;0.30;;
44214;SDS011;29884;47.450;19.124;2022-08-02T08:50:41;0.95;;;0.40;;
44214;SDS011;29884;47.450;19.124;2022-08-02T08:53:13;0.85;;;0.40;;
44214;SDS011;29884;47.450;19.124;2022-08-02T08:55:39;3.63;;;0.40;;
44214;SDS011;29884;47.450;19.124;2022-08-02T08:58:05;1.65;;;0.38;;
44214;SDS011;29884;47.450;19.124;2022-08-02T09:00:32;0.30;;;0.30;;
44214;SDS011;29884;47.450;19.124;2022-08-02T09:03:03;0.40;;;0.35;;
44214;SDS011;29884;47.450;19.124;2022-08-02T09:05:31;2.25;;;0.40;;
44214;SDS011;29884;47.450;19.124;2022-08-02T09:07:59;0.35;;;0.30;;
44214;SDS011;29884;47.450;19.124;2022-08-02T09:10:38;0.90;;;0.40;;
44214;SDS011;29884;47.450;19.124;2022-08-02T09:15:43;0.60;;;0.43;;
44214;SDS011;29884;47.450;19.124;2022-08-02T09:18:20;1.50;;;0.30;;
44214;SDS011;29884;47.450;19.124;2022-08-02T09:20:57;1.63;;;0.28;;
44214;SDS011;29884;47.450;19.124;2022-08-02T09:23:34;0.30;;;0.30;;
44214;SDS011;29884;47.450;19.124;2022-08-02T09:26:02;0.50;;;0.30;;
44214;SDS011;29884;47.450;19.124;2022-08-02T09:28:31;0.43;;;0.30;;
44214;SDS011;29884;47.450;19.124;2022-08-02T09:31:18;0.45;;;0.40;;
44214;SDS011;29884;47.450;19.124;2022-08-02T09:33:52;1.88;;;0.30;;
44214;SDS011;29884;47.450;19.124;2022-08-02T09:36:23;0.60;;;0.40;;
44214;SDS011;29884;47.450;19.124;2022-08-02T09:38:58;0.60;;;0.40;;
44214;SDS011;29884;47.450;19.124;2022-08-02T09:41:31;1.15;;;0.40;;
44214;SDS011;29884;47.450;19.124;2022-08-02T09:44:00;1.50;;;0.30;;
44214;SDS011;29884;47.450;19.124;2022-08-02T09:46:28;0.45;;;0.30;;
44214;SDS011;29884;47.450;19.124;2022-08-02T09:49:02;0.57;;;0.40;;
44214;SDS011;29884;47.450;19.124;2022-08-02T09:51:30;2.83;;;0.43;;
44214;SDS011;29884;47.450;19.124;2022-08-02T09:54:00;0.55;;;0.40;;
44214;SDS011;29884;47.450;19.124;2022-08-02T09:56:38;0.80;;;0.40;;
44214;SDS011;29884;47.450;19.124;2022-08-02T09:59:14;0.40;;;0.30;;
44214;SDS011;29884;47.450;19.124;2022-08-02T10:01:41;0.40;;;0.30;;
44214;SDS011;29884;47.450;19.124;2022-08-02T10:04:10;1.73;;;0.30;;
44214;SDS011;29884;47.450;19.124;2022-08-02T10:06:38;0.30;;;0.30;;
44214;SDS011;29884;47.450;19.124;2022-08-02T10:09:05;0.50;;;0.30;;
44214;SDS011;29884;47.450;19.124;2022-08-02T10:11:32;0.50;;;0.40;;
44214;SDS011;29884;47.450;19.124;2022-08-02T10:13:59;0.40;;;0.40;;
44214;SDS011;29884;47.450;19.124;2022-08-02T10:16:27;0.35;;;0.30;;
44214;SDS011;29884;47.450;19.124;2022-08-02T10:18:54;0.30;;;0.30;;
44214;SDS011;29884;47.450;19.124;2022-08-02T10:21:27;0.40;;;0.30;;
44214;SDS011;29884;47.450;19.124;2022-08-02T10:23:59;0.50;;;0.30;;
44214;SDS011;29884;47.450;19.124;2022-08-02T10:26:37;0.50;;;0.30;;
44214;SDS011;29884;47.450;19.124;2022-08-02T10:29:07;0.50;;;0.30;;
44214;SDS011;29884;47.450;19.124;2022-08-02T10:31:36;0.60;;;0.30;;
44214;SDS011;29884;47.450;19.124;2022-08-02T10:36:41;0.55;;;0.38;;
44214;SDS011;29884;47.450;19.124;2022-08-02T10:39:10;0.25;;;0.20;;
44214;SDS011;29884;47.450;19.124;2022-08-02T10:41:40;0.25;;;0.25;;
44214;SDS011;29884;47.450;19.124;2022-08-02T10:44:20;0.30;;;0.30;;
44214;SDS011;29884;47.450;19.124;2022-08-02T10:46:46;2.47;;;0.30;;
44214;SDS011;29884;47.450;19.124;2022-08-02T10:49:12;0.60;;;0.30;;
44214;SDS011;29884;47.450;19.124;2022-08-02T10:54:20;0.65;;;0.32;;
44214;SDS011;29884;47.450;19.124;2022-08-02T10:56:48;0.55;;;0.30;;
44214;SDS011;29884;47.450;19.124;2022-08-02T10:59:22;2.25;;;0.30;;
44214;SDS011;29884;47.450;19.124;2022-08-02T11:01:52;0.45;;;0.35;;
44214;SDS011;29884;47.450;19.124;2022-08-02T11:05:00;0.65;;;0.30;;
44214;SDS011;29884;47.450;19.124;2022-08-02T11:07:28;0.93;;;0.40;;
44214;SDS011;29884;47.450;19.124;2022-08-02T11:13:01;1.65;;;0.30;;
44214;SDS011;29884;47.450;19.124;2022-08-02T11:18:18;4.57;;;0.55;;
44214;SDS011;29884;47.450;19.124;2022-08-02T11:20:45;0.95;;;0.28;;
44214;SDS011;29884;47.450;19.124;2022-08-02T11:28:57;0.47;;;0.20;;
44214;SDS011;29884;47.450;19.124;2022-08-02T11:31:24;0.57;;;0.20;;
44214;SDS011;29884;47.450;19.124;2022-08-02T11:33:50;0.30;;;0.20;;
44214;SDS011;29884;47.450;19.124;2022-08-02T11:36:17;0.55;;;0.20;;
44214;SDS011;29884;47.450;19.124;2022-08-02T11:38:43;0.30;;;0.20;;
44214;SDS011;29884;47.450;19.124;2022-08-02T11:41:09;1.58;;;0.17;;
44214;SDS011;29884;47.450;19.124;2022-08-02T11:43:52;0.10;;;0.10;;
44214;SDS011;29884;47.450;19.124;2022-08-02T11:48:47;0.30;;;0.20;;
44214;SDS011;29884;47.450;19.124;2022-08-02T11:51:14;0.32;;;0.22;;
44214;SDS011;29884;47.450;19.124;2022-08-02T11:56:08;0.28;;;0.20;;
44214;SDS011;29884;47.450;19.124;2022-08-02T11:58:36;1.58;;;0.15;;
44214;SDS011;29884;47.450;19.124;2022-08-02T12:01:03;0.40;;;0.20;;
44214;SDS011;29884;47.450;19.124;2022-08-02T12:03:34;0.22;;;0.10;;
44214;SDS011;29884;47.450;19.124;2022-08-02T12:06:01;0.28;;;0.20;;
44214;SDS011;29884;47.450;19.124;2022-08-02T12:08:29;0.20;;;0.20;;
44214;SDS011;29884;47.450;19.124;2022-08-02T12:10:55;0.20;;;0.20;;
44214;SDS011;29884;47.450;19.124;2022-08-02T12:13:21;0.30;;;0.20;;
44214;SDS011;29884;47.450;19.124;2022-08-02T12:15:47;0.50;;;0.10;;
44214;SDS011;29884;47.450;19.124;2022-08-02T12:18:13;0.20;;;0.20;;
44214;SDS011;29884;47.450;19.124;2022-08-02T12:21:00;0.17;;;0.17;;
44214;SDS011;29884;47.450;19.124;2022-08-02T12:23:27;0.40;;;0.13;;
44214;SDS011;29884;47.450;19.124;2022-08-02T12:28:25;0.28;;;0.17;;
44214;SDS011;29884;47.450;19.124;2022-08-02T12:30:55;0.35;;;0.20;;
44214;SDS011;29884;47.450;19.124;2022-08-02T12:33:28;0.30;;;0.13;;
44214;SDS011;29884;47.450;19.124;2022-08-02T12:38:53;0.90;;;0.20;;
44214;SDS011;29884;47.450;19.124;2022-08-02T12:41:20;0.10;;;0.10;;
44214;SDS011;29884;47.450;19.124;2022-08-02T12:43:47;2.20;;;0.17;;
44214;SDS011;29884;47.450;19.124;2022-08-02T12:46:17;0.22;;;0.22;;
44214;SDS011;29884;47.450;19.124;2022-08-02T12:48:44;0.30;;;0.20;;
44214;SDS011;29884;47.450;19.124;2022-08-02T12:51:20;0.30;;;0.20;;
44214;SDS011;29884;47.450;19.124;2022-08-02T12:53:47;2.42;;;0.30;;
44214;SDS011;29884;47.450;19.124;2022-08-02T12:56:30;0.30;;;0.20;;
44214;SDS011;29884;47.450;19.124;2022-08-02T12:58:58;0.32;;;0.30;;
44214;SDS011;29884;47.450;19.124;2022-08-02T13:01:25;0.20;;;0.20;;
44214;SDS011;29884;47.450;19.124;2022-08-02T13:03:52;0.32;;;0.30;;
44214;SDS011;29884;47.450;19.124;2022-08-02T13:06:19;0.30;;;0.30;;
44214;SDS011;29884;47.450;19.124;2022-08-02T13:08:46;0.40;;;0.20;;
44214;SDS011;29884;47.450;19.124;2022-08-02T13:11:12;0.30;;;0.30;;
44214;SDS011;29884;47.450;19.124;2022-08-02T13:13:39;0.30;;;0.30;;
44214;SDS011;29884;47.450;19.124;2022-08-02T13:16:05;0.45;;;0.20;;
44214;SDS011;29884;47.450;19.124;2022-08-02T13:18:32;1.23;;;0.20;;
44214;SDS011;29884;47.450;19.124;2022-08-02T13:20:58;0.40;;;0.20;;
44214;SDS011;29884;47.450;19.124;2022-08-02T13:23:24;2.20;;;0.30;;
44214;SDS011;29884;47.450;19.124;2022-08-02T13:25:50;0.50;;;0.30;;
44214;SDS011;29884;47.450;19.124;2022-08-02T13:28:17;1.17;;;0.45;;
44214;SDS011;29884;47.450;19.124;2022-08-02T13:30:43;0.38;;;0.20;;
44214;SDS011;29884;47.450;19.124;2022-08-02T13:33:10;0.55;;;0.20;;
44214;SDS011;29884;47.450;19.124;2022-08-02T13:35:36;0.30;;;0.20;;
44214;SDS011;29884;47.450;19.124;2022-08-02T13:38:02;0.20;;;0.20;;
44214;SDS011;29884;47.450;19.124;2022-08-02T13:40:30;0.10;;;0.10;;
44214;SDS011;29884;47.450;19.124;2022-08-02T13:42:56;0.30;;;0.15;;
44214;SDS011;29884;47.450;19.124;2022-08-02T13:45:22;2.00;;;0.20;;
44214;SDS011;29884;47.450;19.124;2022-08-02T13:47:48;0.20;;;0.15;;
44214;SDS011;29884;47.450;19.124;2022-08-02T13:50:14;0.82;;;0.20;;
44214;SDS011;29884;47.450;19.124;2022-08-02T13:52:40;1.42;;;0.20;;
44214;SDS011;29884;47.450;19.124;2022-08-02T13:55:05;0.22;;;0.17;;
44214;SDS011;29884;47.450;19.124;2022-08-02T13:57:32;0.30;;;0.20;;
44214;SDS011;29884;47.450;19.124;2022-08-02T13:59:58;0.20;;;0.20;;
44214;SDS011;29884;47.450;19.124;2022-08-02T14:02:24;0.32;;;0.20;;
44214;SDS011;29884;47.450;19.124;2022-08-02T14:04:52;0.20;;;0.10;;
44214;SDS011;29884;47.450;19.124;2022-08-02T14:07:18;0.20;;;0.20;;
44214;SDS011;29884;47.450;19.124;2022-08-02T14:09:43;0.38;;;0.28;;
44214;SDS011;29884;47.450;19.124;2022-08-02T14:12:09;0.30;;;0.10;;
44214;SDS011;29884;47.450;19.124;2022-08-02T14:14:36;0.15;;;0.10;;
44214;SDS011;29884;47.450;19.124;2022-08-02T14:17:02;0.20;;;0.10;;
44214;SDS011;29884;47.450;19.124;2022-08-02T14:19:28;1.38;;;0.20;;
44214;SDS011;29884;47.450;19.124;2022-08-02T14:21:54;0.30;;;0.15;;
44214;SDS011;29884;47.450;19.124;2022-08-02T14:24:20;0.40;;;0.15;;
44214;SDS011;29884;47.450;19.124;2022-08-02T14:26:47;0.10;;;0.10;;
44214;SDS011;29884;47.450;19.124;2022-08-02T14:29:14;0.25;;;0.10;;
44214;SDS011;29884;47.450;19.124;2022-08-02T14:31:40;0.13;;;0.10;;
44214;SDS011;29884;47.450;19.124;2022-08-02T14:34:06;0.20;;;0.10;;
44214;SDS011;29884;47.450;19.124;2022-08-02T14:36:32;0.50;;;0.10;;
44214;SDS011;29884;47.450;19.124;2022-08-02T14:38:58;3.67;;;0.20;;
44214;SDS011;29884;47.450;19.124;2022-08-02T14:41:25;0.10;;;0.05;;
44214;SDS011;29884;47.450;19.124;2022-08-02T14:43:51;0.50;;;0.20;;
44214;SDS011;29884;47.450;19.124;2022-08-02T14:46:33;0.03;;;0.03;;
44214;SDS011;29884;47.450;19.124;2022-08-02T14:49:00;0.10;;;0.10;;
44214;SDS011;29884;47.450;19.124;2022-08-02T14:51:28;0.10;;;0.08;;
44214;SDS011;29884;47.450;19.124;2022-08-02T14:53:55;0.57;;;0.10;;
44214;SDS011;29884;47.450;19.124;2022-08-02T14:56:21;0.03;;;0.03;;
44214;SDS011;29884;47.450;19.124;2022-08-02T14:58:50;0.00;;;0.00;;
44214;SDS011;29884;47.450;19.124;2022-08-02T15:01:17;4.18;;;0.10;;
44214;SDS011;29884;47.450;19.124;2022-08-02T15:03:42;0.25;;;0.10;;
44214;SDS011;29884;47.450;19.124;2022-08-02T15:06:08;0.03;;;0.03;;
44214;SDS011;29884;47.450;19.124;2022-08-02T15:08:34;0.05;;;0.00;;
44214;SDS011;29884;47.450;19.124;2022-08-02T15:10:59;0.20;;;0.10;;
44214;SDS011;29884;47.450;19.124;2022-08-02T15:13:25;0.32;;;0.20;;
44214;SDS011;29884;47.450;19.124;2022-08-02T15:15:51;3.72;;;0.20;;
44214;SDS011;29884;47.450;19.124;2022-08-02T15:18:17;0.30;;;0.10;;
44214;SDS011;29884;47.450;19.124;2022-08-02T15:20:43;0.10;;;0.10;;
44214;SDS011;29884;47.450;19.124;2022-08-02T15:23:11;0.20;;;0.10;;
44214;SDS011;29884;47.450;19.124;2022-08-02T15:25:41;0.20;;;0.10;;
44214;SDS011;29884;47.450;19.124;2022-08-02T15:28:07;0.10;;;0.10;;